Time;durP1;ratioP1;P1;durP2;ratioP2;P2;SDS_P1;SDS_P2;PMS_P1;PMS_P2;Temp;Humidity;BMP_temperature;BMP_pressure;BME280_temperature;BME280_humidity;BME280_pressure;Samples;Min_cycle;Max_cycle;Signal;HPM_P1;HPM_P2
2023/07/03 00:00:37;;;;;;;29.47;11.23;;;;;;;-145.69;100.00;52181.00;5074150;28;20203;-87
2023/07/03 00:03:04;;;;;;;23.57;10.33;;;;;;;-145.69;100.00;52206.75;5074885;28;20209;-88
2023/07/03 00:05:30;;;;;;;24.83;10.47;;;;;;;-145.69;100.00;52175.06;5074331;28;20677;-87
2023/07/03 00:07:59;;;;;;;23.60;10.20;;;;;;;-145.69;100.00;52198.81;5074488;28;20226;-87
2023/07/03 00:10:25;;;;;;;28.33;10.60;;;;;;;-145.69;100.00;52210.72;5074517;28;20211;-88
2023/07/03 00:12:52;;;;;;;27.07;9.87;;;;;;;-145.69;100.00;52204.75;5074586;28;20207;-87
2023/07/03 00:15:19;;;;;;;23.23;9.43;;;;;;;-145.69;100.00;52198.81;5074685;28;20205;-87
2023/07/03 00:17:47;;;;;;;26.40;10.65;;;;;;;-145.69;100.00;52143.38;5074599;28;20207;-87
2023/07/03 00:20:14;;;;;;;27.37;9.57;;;;;;;-145.69;100.00;52167.13;5074439;28;20203;-88
2023/07/03 00:22:41;;;;;;;23.95;10.15;;;;;;;-145.69;100.00;52198.81;5073964;28;20229;-87
2023/07/03 00:25:09;;;;;;;22.87;9.93;;;;;;;-145.69;100.00;52214.66;5074097;28;20203;-87
2023/07/03 00:27:35;;;;;;;25.13;10.50;;;;;;;-145.69;100.00;52200.81;5073979;28;20202;-87
2023/07/03 00:30:02;;;;;;;22.60;9.80;;;;;;;-145.69;100.00;52179.03;5074226;28;20206;-87
2023/07/03 00:32:29;;;;;;;24.00;9.97;;;;;;;-145.69;100.00;52228.53;5074288;28;20209;-87
2023/07/03 00:34:57;;;;;;;24.80;10.20;;;;;;;-145.69;100.00;52198.81;5074542;28;20561;-87
2023/07/03 00:37:23;;;;;;;23.00;9.40;;;;;;;-145.69;100.00;52222.59;5072678;28;20211;-87
2023/07/03 00:39:50;;;;;;;26.20;10.40;;;;;;;-145.69;100.00;52181.00;5074380;28;20211;-87
2023/07/03 00:42:19;;;;;;;20.77;8.90;;;;;;;-145.69;100.00;52214.66;5073907;28;20230;-88
2023/07/03 00:44:47;;;;;;;29.00;10.20;;;;;;;-145.69;100.00;52198.81;5074342;28;20210;-87
2023/07/03 00:47:14;;;;;;;22.90;9.50;;;;;;;-145.69;100.00;52184.97;5073967;28;20202;-87
2023/07/03 00:49:40;;;;;;;26.87;10.20;;;;;;;-145.69;100.00;52218.63;5073672;28;20210;-87
2023/07/03 00:52:12;;;;;;;26.37;9.80;;;;;;;-145.69;100.00;52202.78;5074109;28;20231;-87
2023/07/03 00:54:38;;;;;;;25.23;9.77;;;;;;;-145.69;100.00;52145.34;5073812;28;20199;-87
2023/07/03 00:57:05;;;;;;;28.17;10.17;;;;;;;-145.69;100.00;52210.72;5071447;28;20581;-87
2023/07/03 00:59:34;;;;;;;25.60;10.03;;;;;;;-145.69;100.00;52190.91;5053993;28;20203;-87
2023/07/03 01:02:12;;;;;;;27.20;10.50;;;;;;;-145.69;100.00;52177.03;5053565;28;20315;-87
2023/07/03 01:04:45;;;;;;;21.23;10.20;;;;;;;-145.69;100.00;52224.56;5053857;28;20293;-87
2023/07/03 01:07:16;;;;;;;29.93;9.87;;;;;;;-145.69;100.00;52181.00;5053479;28;20199;-87
2023/07/03 01:09:46;;;;;;;24.20;9.63;;;;;;;-145.69;100.00;52194.88;5053798;28;20207;-87
2023/07/03 01:12:13;;;;;;;24.90;9.73;;;;;;;-145.69;100.00;52204.75;5070431;28;20209;-87
2023/07/03 01:14:42;;;;;;;25.23;10.30;;;;;;;-145.69;100.00;52240.41;5072453;28;20561;-87
2023/07/03 01:17:11;;;;;;;25.27;9.50;;;;;;;-145.69;100.00;52210.72;5073549;28;20199;-87
2023/07/03 01:19:40;;;;;;;28.67;9.73;;;;;;;-145.69;100.00;52210.72;5073775;28;20551;-87
2023/07/03 01:22:14;;;;;;;28.67;10.10;;;;;;;-145.69;100.00;52208.72;5073765;28;20226;-87
2023/07/03 01:24:46;;;;;;;21.73;10.07;;;;;;;-145.69;100.00;52186.94;5073924;28;20205;-87
2023/07/03 01:27:15;;;;;;;26.57;9.87;;;;;;;-145.69;100.00;52242.38;5073489;28;20210;-87
2023/07/03 01:29:44;;;;;;;25.30;10.20;;;;;;;-145.69;100.00;52190.91;5073909;28;20234;-87
2023/07/03 01:32:13;;;;;;;24.60;9.47;;;;;;;-145.69;100.00;52222.59;5073579;28;20206;-87
2023/07/03 01:34:45;;;;;;;22.10;8.80;;;;;;;-145.69;100.00;52232.50;5073489;28;20209;-87
2023/07/03 01:37:13;;;;;;;22.60;9.53;;;;;;;-145.69;100.00;52192.88;5073415;28;20210;-87
2023/07/03 01:39:40;;;;;;;25.57;10.33;;;;;;;-145.69;100.00;52218.63;5073273;28;20362;-87
2023/07/03 01:42:10;;;;;;;20.67;9.27;;;;;;;-145.69;100.00;52256.25;5073081;28;20226;-86
2023/07/03 01:44:37;;;;;;;28.30;9.70;;;;;;;-145.69;100.00;52206.75;5073511;28;20272;-87
2023/07/03 01:47:06;;;;;;;25.43;9.13;;;;;;;-145.69;100.00;52202.78;5073144;28;20194;-88
2023/07/03 01:49:32;;;;;;;23.17;9.00;;;;;;;-145.69;100.00;52226.53;5073291;28;20195;-86
2023/07/03 01:52:07;;;;;;;24.90;10.03;;;;;;;-145.69;100.00;52210.72;5076912;28;20252;-87
2023/07/03 01:54:41;;;;;;;23.70;9.60;;;;;;;-145.69;100.00;52222.59;5077045;28;20209;-87
2023/07/03 01:57:12;;;;;;;33.07;10.37;;;;;;;-145.69;100.00;52234.47;5077255;28;20288;-88
2023/07/03 01:59:40;;;;;;;26.07;9.27;;;;;;;-145.69;100.00;52222.59;5076599;28;20199;-87
2023/07/03 02:02:11;;;;;;;22.57;9.40;;;;;;;-145.69;100.00;52181.00;5076905;28;20233;-88
2023/07/03 02:04:42;;;;;;;19.23;8.93;;;;;;;-145.69;100.00;52202.78;5076767;28;20206;-87
2023/07/03 02:07:11;;;;;;;27.03;10.40;;;;;;;-145.69;100.00;52200.81;5076953;28;20207;-88
2023/07/03 02:09:40;;;;;;;23.73;9.33;;;;;;;-145.69;100.00;52216.66;5076842;28;20297;-87
2023/07/03 02:12:11;;;;;;;23.40;10.07;;;;;;;-145.69;100.00;52200.81;5076687;28;20260;-87
2023/07/03 02:14:39;;;;;;;26.33;9.90;;;;;;;-145.69;100.00;52216.66;5076755;28;20202;-87
2023/07/03 02:17:07;;;;;;;27.27;9.73;;;;;;;-145.69;100.00;52222.59;5076542;28;20634;-87
2023/07/03 02:19:34;;;;;;;22.50;9.32;;;;;;;-145.69;100.00;52175.06;5076475;28;20199;-87
2023/07/03 02:22:00;;;;;;;21.33;8.63;;;;;;;-145.69;100.00;52218.63;5076540;28;20218;-88
2023/07/03 02:24:27;;;;;;;19.98;9.18;;;;;;;-145.69;100.00;52204.75;5076679;28;20210;-86
2023/07/03 02:26:54;;;;;;;25.80;9.57;;;;;;;-145.69;100.00;52230.50;5076587;28;20206;-87
2023/07/03 02:29:24;;;;;;;30.07;9.33;;;;;;;-145.69;100.00;52198.81;5076157;28;20205;-88
2023/07/03 02:31:52;;;;;;;24.07;9.23;;;;;;;-145.69;100.00;52200.81;5076520;28;20669;-87
2023/07/03 02:34:20;;;;;;;28.13;10.10;;;;;;;-145.69;100.00;52246.34;5076495;28;20664;-87
2023/07/03 02:36:48;;;;;;;25.13;9.40;;;;;;;-145.69;100.00;52224.56;5076411;28;20611;-87
2023/07/03 02:39:17;;;;;;;24.98;9.98;;;;;;;-145.69;100.00;52206.75;5075209;28;20199;-88
2023/07/03 02:41:44;;;;;;;23.20;9.63;;;;;;;-145.69;100.00;52218.63;5076139;28;20645;-87
2023/07/03 02:44:10;;;;;;;20.63;9.50;;;;;;;-145.69;100.00;52202.78;5076276;28;20210;-87
2023/07/03 02:46:41;;;;;;;23.57;10.07;;;;;;;-145.69;100.00;52192.88;5076291;28;20205;-88
2023/07/03 02:49:09;;;;;;;22.02;9.73;;;;;;;-145.69;100.00;52202.78;5077954;28;20210;-88
2023/07/03 02:51:36;;;;;;;23.20;9.33;;;;;;;-145.69;100.00;52198.81;5096064;28;20233;-87
2023/07/03 02:54:04;;;;;;;21.40;9.13;;;;;;;-145.69;100.00;52210.72;5096501;28;20204;-88
2023/07/03 02:56:31;;;;;;;24.97;9.87;;;;;;;-145.69;100.00;52171.09;5096178;28;20672;-88
2023/07/03 02:58:57;;;;;;;22.30;9.00;;;;;;;-145.69;100.00;52226.53;5077028;28;20214;-87
2023/07/03 03:01:26;;;;;;;18.33;8.73;;;;;;;-145.69;100.00;52216.66;5055323;28;20658;-88
2023/07/03 03:03:52;;;;;;;15.17;7.97;;;;;;;-145.69;100.00;52230.50;5055514;28;20732;-88
2023/07/03 03:06:20;;;;;;;23.30;8.80;;;;;;;-145.69;100.00;52204.75;5055906;28;20202;-88
2023/07/03 03:08:48;;;;;;;21.53;9.70;;;;;;;-145.69;100.00;52204.75;5070198;28;20248;-88
2023/07/03 03:11:17;;;;;;;26.33;9.30;;;;;;;-145.69;100.00;52230.50;5075757;28;20203;-88
2023/07/03 03:13:44;;;;;;;21.33;8.33;;;;;;;-145.69;100.00;52200.81;5075827;28;20226;-88
2023/07/03 03:16:11;;;;;;;24.10;9.60;;;;;;;-145.69;100.00;52206.75;5075785;28;20209;-88
2023/07/03 03:18:40;;;;;;;23.47;8.60;;;;;;;-145.69;100.00;52216.66;5075802;28;20791;-88
2023/07/03 03:21:07;;;;;;;22.77;9.07;;;;;;;-145.69;100.00;52181.00;5076167;28;20229;-87
2023/07/03 03:23:35;;;;;;;23.48;9.35;;;;;;;-145.69;100.00;52190.91;5075249;28;20231;-88
2023/07/03 03:26:01;;;;;;;22.88;9.32;;;;;;;-145.69;100.00;52188.91;5075600;28;20206;-88
2023/07/03 03:28:30;;;;;;;22.73;10.02;;;;;;;-145.69;100.00;52194.88;5075488;28;20206;-88
2023/07/03 03:30:59;;;;;;;29.70;9.73;;;;;;;-145.69;100.00;52202.78;5075381;28;20195;-88
2023/07/03 03:33:28;;;;;;;23.35;9.05;;;;;;;-145.69;100.00;52214.66;5075343;28;20199;-88
2023/07/03 03:35:54;;;;;;;21.97;8.53;;;;;;;-145.69;100.00;52198.81;5074982;28;20199;-88
2023/07/03 03:38:21;;;;;;;28.10;9.10;;;;;;;-145.69;100.00;52196.84;5075257;28;20199;-88
2023/07/03 03:40:56;;;;;;;22.85;9.00;;;;;;;-145.69;100.00;52228.53;5075014;28;20202;-87
2023/07/03 03:43:23;;;;;;;19.52;8.57;;;;;;;-145.69;100.00;52224.56;5074872;28;20225;-87
2023/07/03 03:45:56;;;;;;;23.63;8.55;;;;;;;-145.69;100.00;52202.78;5075188;28;20202;-87
2023/07/03 03:48:23;;;;;;;18.77;7.63;;;;;;;-145.69;100.00;52214.66;5074856;28;20205;-88
2023/07/03 03:50:50;;;;;;;21.48;8.45;;;;;;;-145.69;100.00;52218.63;5074537;28;20272;-88
2023/07/03 03:53:17;;;;;;;20.75;8.00;;;;;;;-145.69;100.00;52196.84;5074376;28;20199;-88
2023/07/03 03:55:44;;;;;;;19.42;8.43;;;;;;;-145.69;100.00;52214.66;5074868;28;20210;-88
2023/07/03 03:58:12;;;;;;;19.98;8.77;;;;;;;-145.69;100.00;52230.50;5073630;28;20257;-88
2023/07/03 04:00:38;;;;;;;20.08;8.15;;;;;;;-145.69;100.00;52202.78;5074546;28;20203;-87
2023/07/03 04:03:07;;;;;;;20.67;8.50;;;;;;;-145.69;100.00;52171.09;5074816;28;20674;-88
2023/07/03 04:05:34;;;;;;;18.40;8.15;;;;;;;-145.69;100.00;52216.66;5074668;28;20653;-89
2023/07/03 04:08:01;;;;;;;23.83;8.05;;;;;;;-145.69;100.00;52161.19;5074955;28;20202;-88
2023/07/03 04:10:27;;;;;;;26.08;8.55;;;;;;;-145.69;100.00;52179.03;5075007;28;20207;-87
2023/07/03 04:12:54;;;;;;;17.13;7.97;;;;;;;-145.69;100.00;52216.66;5073638;28;20297;-88
2023/07/03 04:15:24;;;;;;;22.85;8.63;;;;;;;-145.69;100.00;52210.72;5074610;28;20195;-88
2023/07/03 04:17:50;;;;;;;24.63;9.02;;;;;;;-145.69;100.00;52173.09;5074395;28;20661;-88
2023/07/03 04:20:17;;;;;;;20.80;8.75;;;;;;;-145.69;100.00;52184.97;5074184;28;20619;-87
2023/07/03 04:22:44;;;;;;;16.08;6.70;;;;;;;-145.69;100.00;52173.09;5074686;28;20561;-88
2023/07/03 04:25:11;;;;;;;23.58;8.30;;;;;;;-145.69;100.00;52167.13;5074185;28;20199;-87
2023/07/03 04:27:38;;;;;;;23.27;7.97;;;;;;;-145.69;100.00;52167.13;5074360;28;20246;-88
2023/07/03 04:30:06;;;;;;;20.70;8.68;;;;;;;-145.69;100.00;52147.34;5074749;28;20202;-87
2023/07/03 04:32:34;;;;;;;20.45;8.13;;;;;;;-145.69;100.00;52177.03;5074480;28;20565;-88
2023/07/03 04:35:00;;;;;;;21.50;8.18;;;;;;;-145.69;100.00;52190.91;5074472;28;20206;-88
2023/07/03 04:37:27;;;;;;;20.98;7.68;;;;;;;-145.69;100.00;52194.88;5074083;28;20206;-87
2023/07/03 04:39:54;;;;;;;24.17;7.90;;;;;;;-145.69;100.00;52155.25;5074278;28;20608;-88
2023/07/03 04:42:20;;;;;;;23.70;7.55;;;;;;;-145.69;100.00;52161.19;5074205;28;20225;-88
2023/07/03 04:44:48;;;;;;;21.00;7.82;;;;;;;-145.69;100.00;52171.09;5074149;28;20214;-88
2023/07/03 04:47:19;;;;;;;19.05;8.00;;;;;;;-145.69;100.00;52198.81;5073135;28;20524;-88
2023/07/03 04:49:49;;;;;;;15.25;7.40;;;;;;;-145.69;100.00;52186.94;5073994;28;20207;-88
2023/07/03 04:52:16;;;;;;;15.93;7.32;;;;;;;-145.69;100.00;52234.47;5074086;28;20191;-88
2023/07/03 04:54:44;;;;;;;21.05;7.00;;;;;;;-145.69;100.00;52165.16;5070763;28;20206;-88
2023/07/03 04:57:11;;;;;;;19.00;7.07;;;;;;;-145.69;100.00;52157.25;5053870;28;20219;-88
2023/07/03 04:59:37;;;;;;;27.48;7.47;;;;;;;-145.69;99.88;52169.13;5054007;28;20563;-89
2023/07/03 05:02:04;;;;;;;23.15;7.40;;;;;;;-145.69;99.28;52175.06;5053638;28;20754;-87
2023/07/03 05:04:31;;;;;;;16.13;6.07;;;;;;;-145.69;95.40;52163.19;5053217;28;20226;-87
2023/07/03 05:06:59;;;;;;;16.30;6.13;;;;;;;-145.69;96.02;52171.09;5053362;28;20205;-88
2023/07/03 05:09:26;;;;;;;22.10;6.57;;;;;;;-145.69;94.89;52184.97;5053808;28;20209;-88
2023/07/03 05:11:54;;;;;;;16.42;6.05;;;;;;;-145.69;95.47;52135.47;5067257;28;20281;-87
2023/07/03 05:14:20;;;;;;;18.58;6.13;;;;;;;-145.69;90.96;52165.16;5073879;28;20207;-87
2023/07/03 05:16:47;;;;;;;16.40;6.38;;;;;;;-145.69;90.15;52181.00;5073499;28;20207;-86
2023/07/03 05:19:19;;;;;;;18.98;6.40;;;;;;;-145.69;90.64;52141.41;5073735;28;20202;-87
2023/07/03 05:21:46;;;;;;;14.40;6.30;;;;;;;-145.69;90.81;52149.31;5073964;28;20203;-88
2023/07/03 05:24:14;;;;;;;22.85;6.97;;;;;;;-145.69;92.63;52131.50;5075051;28;20227;-88
2023/07/03 05:26:40;;;;;;;19.55;7.22;;;;;;;-145.69;91.19;52179.03;5077161;28;20442;-87
2023/07/03 05:29:07;;;;;;;16.30;6.32;;;;;;;-145.69;89.38;52141.41;5077944;28;20206;-87
2023/07/03 05:31:33;;;;;;;21.90;6.45;;;;;;;-145.69;87.79;52151.28;5077370;28;20209;-88
2023/07/03 05:34:06;;;;;;;17.77;6.82;;;;;;;-145.69;84.48;52159.22;5077265;28;20681;-87
2023/07/03 05:36:35;;;;;;;20.50;6.15;;;;;;;-145.69;85.88;52163.19;5077182;28;20226;-86
2023/07/03 05:39:04;;;;;;;14.80;6.40;;;;;;;-145.69;86.70;52151.28;5077214;28;20199;-87
2023/07/03 05:41:34;;;;;;;15.32;6.00;;;;;;;-145.69;85.37;52129.50;5077294;28;20202;-88
2023/07/03 05:44:00;;;;;;;17.27;6.57;;;;;;;-145.69;87.73;52115.66;5077085;28;20226;-87
2023/07/03 05:46:27;;;;;;;19.48;6.03;;;;;;;-145.69;85.68;52155.25;5077205;28;20236;-87
2023/07/03 05:48:55;;;;;;;15.70;5.70;;;;;;;-145.69;81.47;52151.28;5077065;28;20291;-88
2023/07/03 05:51:22;;;;;;;14.38;5.97;;;;;;;-145.69;82.21;52147.34;5076886;28;20234;-86
2023/07/03 05:53:48;;;;;;;16.63;6.78;;;;;;;-145.69;81.43;52127.53;5076447;28;20553;-87
2023/07/03 05:56:15;;;;;;;14.38;6.13;;;;;;;-145.69;78.02;52135.47;5076995;28;20710;-87
2023/07/03 05:58:43;;;;;;;17.73;5.78;;;;;;;-145.69;83.72;52125.56;5075518;28;20292;-87
2023/07/03 06:01:10;;;;;;;18.65;6.03;;;;;;;-145.69;80.70;52133.47;5076515;28;20600;-88
2023/07/03 06:03:36;;;;;;;16.27;6.35;;;;;;;-145.69;80.73;52113.66;5075515;28;20771;-87
2023/07/03 06:06:04;;;;;;;13.23;5.55;;;;;;;-145.69;78.65;52137.44;5075494;28;20230;-87
2023/07/03 06:08:31;;;;;;;18.33;6.28;;;;;;;-145.69;78.83;52153.28;5076537;28;20229;-85
2023/07/03 06:10:57;;;;;;;13.50;5.68;;;;;;;-145.69;78.68;52123.56;5076569;28;20199;-88
2023/07/03 06:13:26;;;;;;;15.98;5.95;;;;;;;-145.69;76.68;52123.56;5076733;28;20668;-88
2023/07/03 06:15:54;;;;;;;17.65;6.10;;;;;;;-145.69;73.75;52113.66;5076737;28;20205;-88
2023/07/03 06:18:21;;;;;;;17.50;6.65;;;;;;;-145.69;76.64;52115.66;5076249;28;20207;-86
2023/07/03 06:20:47;;;;;;;18.85;5.63;;;;;;;-145.69;75.24;52105.75;5076317;28;20302;-87
2023/07/03 06:23:14;;;;;;;16.35;5.43;;;;;;;-145.69;76.14;52139.41;5076124;28;20651;-86
2023/07/03 06:25:41;;;;;;;16.48;6.03;;;;;;;-145.69;75.82;52133.47;5076137;28;20199;-86
2023/07/03 06:28:17;;;;;;;16.33;6.10;;;;;;;-145.69;76.85;52135.47;5075908;28;20202;-85
2023/07/03 06:30:47;;;;;;;23.33;6.28;;;;;;;-145.69;74.69;52129.50;5075865;28;20217;-87
2023/07/03 06:33:15;;;;;;;15.18;5.85;;;;;;;-145.69;71.27;52147.34;5076020;28;20711;-87
2023/07/03 06:35:42;;;;;;;14.43;5.22;;;;;;;-145.69;71.86;52119.63;5075111;28;20199;-86
2023/07/03 06:38:08;;;;;;;13.80;5.10;;;;;;;-145.69;69.04;52127.53;5075718;28;20245;-86
2023/07/03 06:40:35;;;;;;;19.35;6.18;;;;;;;-145.69;70.91;52107.72;5076034;28;20195;-86
2023/07/03 06:43:01;;;;;;;17.38;5.97;;;;;;;-145.69;71.63;52103.78;5076059;28;20673;-87
2023/07/03 06:45:28;;;;;;;22.08;6.38;;;;;;;-145.69;66.81;52103.78;5075854;28;20550;-86
2023/07/03 06:47:55;;;;;;;16.20;5.68;;;;;;;-145.69;65.19;52113.66;5075717;28;20230;-86
2023/07/03 06:50:38;;;;;;;18.08;5.88;;;;;;;-145.69;62.94;52109.72;5061715;28;20313;-87
2023/07/03 06:53:07;;;;;;;20.00;6.53;;;;;;;-145.69;63.84;52111.69;5054115;28;20207;-86
2023/07/03 06:55:33;;;;;;;19.70;5.82;;;;;;;-145.69;63.22;52121.59;5055738;28;20204;-87
2023/07/03 06:58:00;;;;;;;17.75;5.78;;;;;;;-145.69;60.76;52107.72;5055302;28;20202;-86
2023/07/03 07:00:27;;;;;;;15.02;5.85;;;;;;;-145.69;62.91;52105.75;5055348;28;20203;-87
2023/07/03 07:02:53;;;;;;;15.82;5.47;;;;;;;-145.69;57.48;52087.94;5055497;28;20218;-87
2023/07/03 07:05:21;;;;;;;15.18;5.80;;;;;;;-145.69;63.81;52083.97;5055510;28;20223;-87
2023/07/03 07:07:48;;;;;;;14.10;5.47;;;;;;;-145.69;58.15;52087.94;5054000;28;20207;-88
2023/07/03 07:10:15;;;;;;;15.77;5.38;;;;;;;-145.69;57.50;52080.00;5055428;28;20203;-89
2023/07/03 07:12:42;;;;;;;19.27;5.88;;;;;;;-145.69;56.62;52064.16;5055444;28;20293;-88
2023/07/03 07:15:09;;;;;;;13.80;5.20;;;;;;;-145.69;54.99;52056.25;5059719;28;20201;-89
2023/07/03 07:17:36;;;;;;;17.02;5.60;;;;;;;-145.69;54.51;52072.09;5075558;28;20213;-88
2023/07/03 07:20:02;;;;;;;17.85;5.88;;;;;;;-145.69;52.73;52066.16;5075445;28;20217;-89
2023/07/03 07:22:29;;;;;;;13.25;5.55;;;;;;;-145.69;53.42;52080.00;5075138;28;20209;-88
2023/07/03 07:24:56;;;;;;;19.27;5.95;;;;;;;-145.69;53.11;52078.03;5075060;28;20231;-88
2023/07/03 07:27:23;;;;;;;19.27;5.93;;;;;;;-145.69;51.67;52085.94;5075375;28;20209;-88
2023/07/03 07:29:50;;;;;;;17.65;6.07;;;;;;;-145.69;50.89;52042.38;5075136;28;20211;-88
2023/07/03 07:32:19;;;;;;;17.38;5.97;;;;;;;-145.69;57.78;52099.81;5075183;28;20282;-88
2023/07/03 07:34:46;;;;;;;14.80;5.45;;;;;;;-145.69;54.89;52089.91;5074973;28;20638;-88
2023/07/03 07:37:13;;;;;;;14.65;5.78;;;;;;;-145.69;54.52;52089.91;5075425;28;20604;-89
2023/07/03 07:39:42;;;;;;;19.15;6.22;;;;;;;-145.69;55.13;52082.00;5075219;28;20214;-86
2023/07/03 07:42:10;;;;;;;16.17;5.38;;;;;;;-145.69;56.09;52093.88;5074982;28;20309;-86
2023/07/03 07:44:36;;;;;;;14.45;5.25;;;;;;;-145.69;55.51;52087.94;5074733;28;20248;-88
2023/07/03 07:47:03;;;;;;;20.15;6.15;;;;;;;-145.69;58.32;52048.31;5074642;28;20207;-88
2023/07/03 07:49:29;;;;;;;16.42;5.35;;;;;;;-145.69;58.45;52099.81;5074777;28;20220;-87
2023/07/03 07:51:57;;;;;;;18.05;5.68;;;;;;;-145.69;50.14;52054.25;5074612;28;20203;-88
2023/07/03 07:54:23;;;;;;;17.08;5.32;;;;;;;-145.69;51.79;52072.09;5074679;28;20217;-88
2023/07/03 07:56:50;;;;;;;20.10;5.75;;;;;;;-145.69;51.04;52072.09;5074934;28;20210;-89
2023/07/03 07:59:18;;;;;;;15.10;5.68;;;;;;;-145.69;47.57;52068.13;5074697;28;20206;-86
2023/07/03 08:01:44;;;;;;;14.93;5.13;;;;;;;-145.69;48.82;52052.28;5074399;28;20281;-86
2023/07/03 08:04:11;;;;;;;13.32;4.78;;;;;;;-145.69;49.55;52056.25;5073808;28;20230;-87
2023/07/03 08:06:37;;;;;;;26.08;6.03;;;;;;;-145.69;52.10;52044.38;5074484;28;20195;-88
2023/07/03 08:09:04;;;;;;;17.42;5.57;;;;;;;-145.69;47.94;52083.97;5074109;28;20450;-87
2023/07/03 08:11:30;;;;;;;21.58;6.22;;;;;;;-145.69;50.70;52056.25;5074294;28;20203;-89
2023/07/03 08:13:57;;;;;;;25.98;6.22;;;;;;;-145.69;49.14;52080.00;5074295;28;20203;-88
2023/07/03 08:16:30;;;;;;;20.50;5.82;;;;;;;-145.69;49.49;52024.56;5074289;28;20294;-89
2023/07/03 08:18:59;;;;;;;18.30;5.97;;;;;;;-145.69;47.04;52066.16;5074257;28;20264;-88
2023/07/03 08:21:26;;;;;;;21.20;6.65;;;;;;;-145.69;48.68;52050.31;5074232;28;20205;-89
2023/07/03 08:23:53;;;;;;;21.40;6.40;;;;;;;-145.69;49.00;52040.41;5074131;28;20313;-89
2023/07/03 08:26:22;;;;;;;19.13;5.93;;;;;;;-145.69;45.49;52044.38;5074258;28;20218;-87
2023/07/03 08:28:48;;;;;;;15.13;5.38;;;;;;;-145.69;46.21;52062.19;5074106;28;20285;-89
2023/07/03 08:31:15;;;;;;;18.38;5.45;;;;;;;-145.69;46.54;52093.88;5074060;28;20237;-87
2023/07/03 08:33:43;;;;;;;13.88;5.45;;;;;;;-145.69;46.00;52101.78;5073878;28;20218;-88
2023/07/03 08:36:12;;;;;;;15.98;5.30;;;;;;;-145.69;46.31;52048.31;5073883;28;20301;-87
2023/07/03 08:38:42;;;;;;;14.57;5.25;;;;;;;-145.69;45.62;52074.06;5074082;28;20289;-88
2023/07/03 08:41:12;;;;;;;14.75;5.03;;;;;;;-145.69;49.58;52030.50;5074102;28;20205;-87
2023/07/03 08:43:42;;;;;;;19.67;5.28;;;;;;;-145.69;47.45;52008.72;5073909;28;22116;-88
2023/07/03 08:46:12;;;;;;;15.43;4.85;;;;;;;-145.69;44.42;52028.53;5073933;28;20214;-88
2023/07/03 08:48:40;;;;;;;15.98;5.38;;;;;;;-145.69;43.44;52032.47;5073774;28;20202;-88
2023/07/03 08:51:14;;;;;;;20.67;5.13;;;;;;;-145.69;44.58;52028.53;5073202;28;20230;-87
2023/07/03 08:53:45;;;;;;;18.15;5.43;;;;;;;-145.69;43.99;52004.75;5073841;28;20214;-88
2023/07/03 08:56:17;;;;;;;15.55;5.72;;;;;;;-145.69;42.87;52012.69;5073573;28;20205;-87
2023/07/03 08:58:44;;;;;;;16.23;5.43;;;;;;;-145.69;43.93;52044.38;5073440;28;20210;-88
2023/07/03 09:01:20;;;;;;;22.13;5.80;;;;;;;-145.69;44.45;52000.81;5056276;28;20234;-87
2023/07/03 09:04:00;;;;;;;16.17;4.75;;;;;;;-145.69;42.79;52014.66;5053398;28;20732;-87
2023/07/03 09:06:36;;;;;;;16.50;5.00;;;;;;;-145.69;45.88;52008.72;5053316;28;20658;-88
2023/07/03 09:09:11;;;;;;;20.35;5.25;;;;;;;-145.69;41.64;52032.47;5059418;28;20256;-87
2023/07/03 09:11:46;;;;;;;18.13;5.40;;;;;;;-145.69;41.44;52006.75;5073765;28;20550;-88
2023/07/03 09:14:19;;;;;;;15.50;4.72;;;;;;;-145.69;42.80;52026.53;5073466;28;20364;-85
2023/07/03 09:16:46;;;;;;;16.83;4.78;;;;;;;-145.69;42.48;52012.69;5073368;28;20214;-88
2023/07/03 09:19:20;;;;;;;12.85;4.43;;;;;;;-145.69;43.74;52056.25;5073572;28;20225;-88
2023/07/03 09:21:51;;;;;;;14.40;4.82;;;;;;;-145.69;43.70;52004.75;5073550;28;20203;-89
2023/07/03 09:24:32;;;;;;;13.07;4.85;;;;;;;-145.69;42.31;52008.72;5073586;28;20222;-88
2023/07/03 09:27:07;;;;;;;12.68;4.43;;;;;;;-145.69;42.26;52010.69;5073252;28;20206;-88
2023/07/03 09:29:39;;;;;;;12.10;4.88;;;;;;;-145.69;42.21;52002.78;5073394;28;20241;-89
2023/07/03 09:32:11;;;;;;;15.15;5.07;;;;;;;-145.69;42.60;52024.56;5073100;28;20658;-87
2023/07/03 09:35:16;;;;;;;15.98;4.55;;;;;;;-145.69;42.74;52032.47;5073364;28;20195;-88
2023/07/03 09:37:49;;;;;;;14.98;4.85;;;;;;;-145.69;43.58;52044.38;5073220;28;20258;-88
2023/07/03 09:40:23;;;;;;;14.50;4.47;;;;;;;-145.69;43.99;52010.69;5073516;28;20626;-87
2023/07/03 09:42:50;;;;;;;15.25;5.00;;;;;;;-145.69;41.88;51992.88;5073347;28;20213;-89
2023/07/03 09:45:22;;;;;;;18.00;4.60;;;;;;;-145.69;44.17;52044.38;5072844;28;20226;-88
2023/07/03 09:47:55;;;;;;;11.77;4.28;;;;;;;-145.69;43.00;52008.72;5073021;28;20301;-86
2023/07/03 09:50:27;;;;;;;15.77;4.47;;;;;;;-145.69;42.52;52024.56;5073019;28;20273;-88
2023/07/03 09:53:02;;;;;;;14.55;4.20;;;;;;;-145.69;42.49;52026.53;5073073;28;20198;-87
2023/07/03 09:55:30;;;;;;;11.77;4.18;;;;;;;-145.69;40.70;52032.47;5073134;28;20244;-85
2023/07/03 09:57:57;;;;;;;12.85;4.07;;;;;;;-145.69;40.83;52028.53;5072755;28;20206;-87
2023/07/03 10:00:28;;;;;;;11.63;4.07;;;;;;;-145.69;46.16;51986.94;5072861;28;20231;-87
2023/07/03 10:03:00;;;;;;;14.40;4.60;;;;;;;-145.69;41.03;51986.94;5072659;28;20740;-86
2023/07/03 10:05:30;;;;;;;16.52;4.90;;;;;;;-145.69;40.39;51994.88;5072860;28;20284;-87
2023/07/03 10:08:02;;;;;;;12.35;4.35;;;;;;;-145.69;39.37;52004.75;5072828;28;20199;-86
2023/07/03 10:10:33;;;;;;;14.93;4.38;;;;;;;-145.69;39.69;52004.75;5073166;28;20205;-85
2023/07/03 10:13:08;;;;;;;11.52;4.30;;;;;;;-145.69;39.06;52022.59;5076050;28;20199;-86
2023/07/03 10:15:38;;;;;;;10.05;4.10;;;;;;;-145.69;40.24;51982.97;5076579;28;20212;-89
2023/07/03 10:18:09;;;;;;;14.57;4.35;;;;;;;-145.69;39.64;51992.88;5076304;28;20213;-86
2023/07/03 10:20:43;;;;;;;11.85;4.32;;;;;;;-145.69;39.64;51979.03;5076376;28;20206;-87
2023/07/03 10:23:18;;;;;;;14.43;5.25;;;;;;;-145.69;42.00;52028.53;5076015;28;20289;-88
2023/07/03 10:25:49;;;;;;;16.90;5.13;;;;;;;-145.69;42.22;51994.88;5075934;28;20256;-86
2023/07/03 10:28:22;;;;;;;13.70;5.30;;;;;;;-145.69;44.43;52016.66;5076454;28;20206;-84
2023/07/03 10:30:53;;;;;;;22.88;5.47;;;;;;;-145.69;44.88;52028.53;5076308;28;20261;-89
2023/07/03 10:33:25;;;;;;;16.25;4.78;;;;;;;-145.69;42.94;52010.69;5076290;28;20210;-87
2023/07/03 10:35:53;;;;;;;14.48;5.00;;;;;;;-145.69;42.78;52002.78;5076324;28;20206;-89
2023/07/03 10:38:26;;;;;;;13.45;4.85;;;;;;;-145.69;43.51;52028.53;5075953;28;20302;-88
2023/07/03 10:41:00;;;;;;;16.33;5.13;;;;;;;-145.69;42.82;52004.75;5076041;28;20293;-87
2023/07/03 10:43:32;;;;;;;11.98;4.75;;;;;;;-145.69;43.41;51990.91;5076027;28;20225;-88
2023/07/03 10:46:00;;;;;;;16.30;4.72;;;;;;;-145.69;40.72;51986.94;5075985;28;20230;-88
2023/07/03 10:48:33;;;;;;;12.57;4.85;;;;;;;-145.69;41.58;51963.19;5075930;28;20199;-87
2023/07/03 10:51:13;;;;;;;14.52;5.00;;;;;;;-145.69;40.40;51979.03;5066651;28;20388;-87
2023/07/03 10:53:45;;;;;;;14.73;4.60;;;;;;;-145.69;39.44;52008.72;5056140;28;20294;-86
2023/07/03 10:56:18;;;;;;;14.50;4.40;;;;;;;-145.69;40.32;51984.97;5055874;28;20230;-87
2023/07/03 10:58:52;;;;;;;19.33;5.28;;;;;;;-145.69;39.25;51996.84;5055567;28;20196;-86
2023/07/03 11:01:28;;;;;;;14.93;5.22;;;;;;;-145.69;41.52;52008.72;5056029;28;20203;-89
2023/07/03 11:04:03;;;;;;;12.57;4.88;;;;;;;-145.69;41.72;51981.00;5055699;28;20210;-89
2023/07/03 11:06:40;;;;;;;16.13;4.20;;;;;;;-145.69;42.72;51979.03;5061319;28;20621;-89
2023/07/03 11:09:18;;;;;;;16.83;4.97;;;;;;;-145.69;40.65;51981.00;5075848;28;20206;-87
2023/07/03 11:11:58;;;;;;;12.75;4.82;;;;;;;-145.69;40.75;51990.91;5075851;28;20203;-89